createdAt,value
2023-02-23T00:01:41.865Z,30.00
2023-02-23T00:04:09.484Z,25.73
2023-02-23T00:06:37.455Z,27.50
2023-02-23T00:09:34.793Z,26.60
2023-02-23T00:12:07.790Z,28.50
2023-02-23T00:14:37.729Z,29.40
2023-02-23T00:17:10.877Z,28.45
2023-02-23T00:19:37.902Z,27.05
2023-02-23T00:22:04.754Z,29.23
2023-02-23T00:24:31.606Z,28.85
2023-02-23T00:26:58.629Z,27.75
2023-02-23T00:29:27.077Z,25.23
2023-02-23T00:31:56.238Z,29.95
2023-02-23T00:34:23.851Z,27.75
2023-02-23T00:36:55.697Z,28.10
2023-02-23T00:39:26.892Z,29.13
2023-02-23T00:41:55.652Z,30.45
2023-02-23T00:44:23.988Z,26.17
2023-02-23T00:46:52.648Z,32.20
2023-02-23T00:49:22.535Z,27.70
2023-02-23T00:51:49.467Z,29.23
2023-02-23T00:54:17.338Z,35.72
2023-02-23T00:56:45.648Z,30.50
2023-02-23T00:59:13.369Z,32.05
2023-02-23T01:01:44.428Z,31.08
2023-02-23T01:04:12.526Z,29.20
2023-02-23T01:06:40.886Z,27.63
2023-02-23T01:09:14.186Z,31.20
2023-02-23T01:11:46.922Z,32.88
2023-02-23T01:14:14.520Z,30.15
2023-02-23T01:16:41.356Z,30.33
2023-02-23T01:19:08.274Z,31.33
2023-02-23T01:21:42.331Z,30.52
2023-02-23T01:24:09.774Z,32.22
2023-02-23T01:26:39.504Z,29.45
2023-02-23T01:29:17.286Z,29.75
2023-02-23T01:31:46.504Z,29.83
2023-02-23T01:34:17.739Z,29.98
2023-02-23T01:36:45.350Z,33.53
2023-02-23T01:39:15.047Z,32.80
2023-02-23T01:41:45.071Z,32.50
2023-02-23T01:44:14.550Z,31.25
2023-02-23T01:46:46.482Z,28.83
2023-02-23T01:49:22.986Z,28.40
2023-02-23T01:51:55.792Z,29.55
2023-02-23T01:54:29.107Z,30.50
2023-02-23T01:56:58.770Z,29.58
2023-02-23T01:59:34.234Z,29.80
2023-02-23T02:02:01.511Z,30.17
2023-02-23T02:04:29.025Z,33.13
2023-02-23T02:07:03.729Z,32.45
2023-02-23T02:09:37.867Z,28.73
2023-02-23T02:12:08.533Z,30.48
2023-02-23T02:14:36.574Z,26.48
2023-02-23T02:17:22.329Z,32.20
2023-02-23T02:19:48.973Z,30.70
2023-02-23T02:22:48.229Z,30.25
2023-02-23T02:25:44.099Z,60.75
2023-02-23T02:28:38.493Z,49.88
2023-02-23T02:31:19.916Z,34.63
2023-02-23T02:33:58.425Z,60.88
2023-02-23T02:36:50.299Z,35.05
2023-02-23T02:39:40.109Z,32.50
2023-02-23T02:42:28.865Z,32.17
2023-02-23T02:45:13.055Z,29.83
2023-02-23T02:48:03.131Z,32.78
2023-02-23T02:50:55.713Z,29.48
2023-02-23T02:54:06.909Z,31.23
2023-02-23T02:56:40.571Z,27.83
2023-02-23T02:59:31.449Z,33.80
2023-02-23T03:02:17.556Z,34.13
2023-02-23T03:05:03.429Z,32.72
2023-02-23T03:07:55.355Z,27.58
2023-02-23T03:11:22.617Z,44.63
2023-02-23T03:14:34.400Z,30.70
2023-02-23T03:17:52.556Z,42.03
2023-02-23T03:21:00.868Z,36.65
2023-02-23T03:23:49.438Z,36.83
2023-02-23T03:26:57.830Z,31.35
2023-02-23T03:29:52.400Z,37.47
2023-02-23T03:32:48.920Z,35.42
2023-02-23T03:35:49.785Z,40.33
2023-02-23T03:38:45.248Z,39.00
2023-02-23T03:41:33.067Z,41.17
2023-02-23T03:44:24.425Z,46.03
2023-02-23T03:47:11.972Z,46.60
2023-02-23T03:50:00.822Z,42.22
2023-02-23T03:53:03.534Z,44.42
2023-02-23T03:55:52.810Z,47.80
2023-02-23T03:58:45.182Z,49.63
2023-02-23T04:01:31.897Z,46.92
2023-02-23T04:04:18.122Z,44.53
2023-02-23T04:07:06.037Z,39.42
2023-02-23T04:09:51.639Z,35.35
2023-02-23T04:12:40.866Z,37.75
2023-02-23T04:15:10.093Z,33.72
2023-02-23T04:17:36.941Z,31.95
2023-02-23T04:20:04.824Z,37.30
2023-02-23T04:22:31.948Z,35.25
2023-02-23T04:24:58.630Z,34.97
2023-02-23T04:27:25.317Z,33.58
2023-02-23T04:29:52.024Z,38.42
2023-02-23T04:32:21.075Z,36.10
2023-02-23T04:34:47.894Z,35.42
2023-02-23T04:37:14.692Z,32.83
2023-02-23T04:39:42.906Z,30.27
2023-02-23T04:42:10.223Z,33.67
2023-02-23T04:44:36.889Z,32.50
2023-02-23T04:47:04.272Z,30.20
2023-02-23T04:49:31.037Z,30.80
2023-02-23T04:51:57.723Z,34.53
2023-02-23T04:54:24.323Z,29.75
2023-02-23T04:56:50.952Z,28.52
2023-02-23T04:59:17.650Z,27.80
2023-02-23T05:01:44.565Z,31.83
2023-02-23T05:04:11.429Z,30.85
2023-02-23T05:06:38.290Z,33.30
2023-02-23T05:09:06.322Z,26.55
2023-02-23T05:11:33.420Z,26.30
2023-02-23T05:14:00.118Z,26.00
2023-02-23T05:16:26.835Z,28.65
2023-02-23T05:18:53.720Z,27.55
2023-02-23T05:21:20.749Z,26.17
2023-02-23T05:23:48.448Z,31.27
2023-02-23T05:26:15.176Z,28.33
2023-02-23T05:28:43.200Z,26.48
2023-02-23T05:31:10.690Z,37.10
2023-02-23T05:33:45.820Z,38.00
2023-02-23T05:36:17.746Z,33.65
2023-02-23T05:38:45.978Z,32.70
2023-02-23T05:41:17.784Z,29.15
2023-02-23T05:43:44.969Z,34.63
2023-02-23T05:46:15.675Z,32.53
2023-02-23T05:48:42.458Z,29.02
2023-02-23T05:51:12.676Z,31.58
2023-02-23T05:53:40.189Z,32.45
2023-02-23T05:56:09.163Z,31.60
2023-02-23T05:58:35.818Z,34.45
2023-02-23T06:01:02.501Z,29.73
2023-02-23T06:03:29.190Z,31.80
2023-02-23T06:05:57.948Z,33.47
2023-02-23T06:08:26.046Z,29.30
2023-02-23T06:10:53.553Z,27.35
2023-02-23T06:13:21.598Z,34.28
2023-02-23T06:15:49.660Z,33.03
2023-02-23T06:18:17.606Z,27.30
2023-02-23T06:20:45.975Z,34.60
2023-02-23T06:23:12.899Z,33.63
2023-02-23T06:25:40.479Z,34.33
2023-02-23T06:28:08.667Z,30.13
2023-02-23T06:30:36.658Z,33.92
2023-02-23T06:33:03.567Z,29.15
2023-02-23T06:35:30.407Z,42.38
2023-02-23T06:37:57.109Z,43.17
2023-02-23T06:40:23.959Z,40.72
2023-02-23T06:42:50.890Z,33.17
2023-02-23T06:45:19.320Z,34.10
2023-02-23T06:47:47.254Z,31.75
2023-02-23T06:50:14.850Z,34.08
2023-02-23T06:52:42.080Z,30.60
2023-02-23T06:55:09.800Z,31.50
2023-02-23T06:57:36.846Z,29.10
2023-02-23T07:00:04.738Z,34.00
2023-02-23T07:02:31.856Z,30.77
2023-02-23T07:04:58.958Z,31.70
2023-02-23T07:07:25.867Z,27.65
2023-02-23T07:09:52.507Z,29.40
2023-02-23T07:12:19.137Z,31.90
2023-02-23T07:14:45.776Z,30.98
2023-02-23T07:17:12.759Z,29.25
2023-02-23T07:19:39.528Z,34.55
2023-02-23T07:22:06.180Z,30.05
2023-02-23T07:24:32.860Z,28.25
2023-02-23T07:26:59.572Z,28.05
2023-02-23T07:29:27.685Z,27.80
2023-02-23T07:31:55.451Z,23.88
2023-02-23T07:34:22.513Z,27.92
2023-02-23T07:36:49.303Z,23.70
2023-02-23T07:39:15.925Z,25.50
2023-02-23T07:41:42.622Z,25.90
2023-02-23T07:44:17.842Z,24.13
2023-02-23T07:46:46.501Z,24.52
2023-02-23T07:49:13.922Z,21.45
2023-02-23T07:51:41.135Z,26.95
2023-02-23T07:54:07.776Z,23.23
2023-02-23T07:56:35.344Z,27.40
2023-02-23T07:59:02.430Z,25.15
2023-02-23T08:01:29.170Z,26.98
2023-02-23T08:03:55.896Z,30.63
2023-02-23T08:06:22.673Z,34.22
2023-02-23T08:08:49.416Z,30.38
2023-02-23T08:11:16.390Z,26.55
2023-02-23T08:13:43.268Z,27.25
2023-02-23T08:16:10.029Z,23.50
2023-02-23T08:18:36.767Z,25.73
2023-02-23T08:21:04.727Z,19.92
2023-02-23T08:23:32.925Z,24.80
2023-02-23T08:26:00.539Z,25.27
2023-02-23T08:28:28.987Z,21.63
2023-02-23T08:30:55.928Z,19.90
2023-02-23T08:33:23.276Z,20.98
2023-02-23T08:35:49.981Z,23.13
2023-02-23T08:38:18.332Z,24.63
2023-02-23T08:40:45.235Z,22.42
2023-02-23T08:43:11.882Z,24.85
2023-02-23T08:45:39.705Z,26.02
2023-02-23T08:48:09.459Z,22.67
2023-02-23T08:50:36.168Z,26.15
2023-02-23T08:53:04.214Z,21.30
2023-02-23T08:55:31.116Z,22.50
2023-02-23T08:57:58.316Z,21.58
2023-02-23T09:00:25.005Z,22.20
2023-02-23T09:02:51.854Z,18.33
2023-02-23T09:05:18.768Z,20.40
2023-02-23T09:07:46.619Z,19.48
2023-02-23T09:10:16.925Z,20.23
2023-02-23T09:12:43.572Z,21.65
2023-02-23T09:15:10.691Z,19.92
2023-02-23T09:17:37.871Z,20.27
2023-02-23T09:20:05.883Z,20.77
2023-02-23T09:22:32.781Z,22.95
2023-02-23T09:24:59.456Z,20.52
2023-02-23T09:27:26.152Z,19.23
2023-02-23T09:29:52.864Z,21.38
2023-02-23T09:32:19.706Z,19.80
2023-02-23T09:34:48.611Z,20.05
2023-02-23T09:37:15.782Z,21.67
2023-02-23T09:39:43.582Z,17.95
2023-02-23T09:42:25.964Z,16.65
2023-02-23T09:45:16.958Z,17.77
2023-02-23T09:48:13.253Z,18.27
2023-02-23T09:50:45.048Z,16.80
2023-02-23T09:53:34.028Z,16.30
2023-02-23T09:56:04.201Z,16.67
2023-02-23T09:58:33.996Z,17.05
2023-02-23T10:01:31.699Z,16.65
2023-02-23T10:04:23.635Z,17.85
2023-02-23T10:06:59.922Z,16.55
2023-02-23T10:09:45.503Z,16.40
2023-02-23T10:12:30.417Z,17.85
2023-02-23T10:15:15.855Z,16.52
2023-02-23T10:18:13.551Z,14.90
2023-02-23T10:21:04.982Z,15.90
2023-02-23T10:23:42.916Z,15.35
2023-02-23T10:26:17.520Z,15.32
2023-02-23T10:28:46.340Z,12.70
2023-02-23T10:31:42.387Z,13.52
2023-02-23T10:34:16.976Z,13.38
2023-02-23T10:37:06.168Z,14.82
2023-02-23T10:39:33.758Z,12.65
2023-02-23T10:42:03.921Z,11.52
2023-02-23T10:44:30.839Z,11.23
2023-02-23T10:47:12.851Z,12.63
2023-02-23T10:49:44.997Z,10.40
2023-02-23T10:54:49.091Z,10.18
2023-02-23T10:57:33.971Z,13.60
2023-02-23T11:00:31.172Z,11.80
2023-02-23T11:02:58.589Z,10.20
2023-02-23T11:05:28.760Z,11.70
2023-02-23T11:08:12.394Z,10.95
2023-02-23T11:10:39.251Z,10.07
2023-02-23T11:13:05.924Z,7.43
2023-02-23T11:15:49.741Z,11.65
2023-02-23T11:18:24.615Z,8.82
2023-02-23T11:20:51.894Z,9.68
2023-02-23T11:23:24.570Z,8.63
2023-02-23T11:25:56.576Z,8.55
2023-02-23T11:28:32.294Z,6.45
2023-02-23T11:31:16.343Z,10.90
2023-02-23T11:33:43.678Z,7.60
2023-02-23T11:36:22.571Z,9.07
2023-02-23T11:39:16.956Z,7.93
2023-02-23T11:41:43.660Z,8.90
2023-02-23T11:44:23.903Z,8.80
2023-02-23T11:46:51.804Z,16.27
2023-02-23T11:49:25.952Z,8.93
2023-02-23T11:51:54.457Z,8.10
2023-02-23T11:54:31.166Z,6.43
2023-02-23T11:56:58.674Z,8.10
2023-02-23T11:59:41.151Z,6.13
2023-02-23T12:02:15.787Z,9.70
2023-02-23T12:04:47.529Z,9.90
2023-02-23T12:07:38.944Z,5.43
2023-02-23T12:10:15.212Z,6.07
2023-02-23T12:12:51.758Z,11.00
2023-02-23T12:15:38.672Z,7.00
2023-02-23T12:18:17.173Z,7.35
2023-02-23T12:20:48.699Z,5.63
2023-02-23T12:23:22.529Z,5.90
2023-02-23T12:25:59.893Z,6.10
2023-02-23T12:28:34.424Z,4.70
2023-02-23T12:31:19.828Z,7.28
2023-02-23T12:33:51.654Z,5.18
2023-02-23T12:36:51.293Z,8.05
2023-02-23T12:39:24.709Z,4.68
2023-02-23T12:42:17.477Z,5.70
2023-02-23T12:44:53.684Z,6.97
2023-02-23T12:47:29.596Z,5.97
2023-02-23T12:50:38.336Z,7.68
2023-02-23T12:53:12.522Z,7.55
2023-02-23T12:56:04.406Z,7.72
2023-02-23T12:59:03.033Z,9.75
2023-02-23T13:01:53.162Z,6.97
2023-02-23T13:04:41.449Z,5.25
2023-02-23T13:07:34.500Z,9.98
2023-02-23T13:10:30.055Z,9.48
2023-02-23T13:12:59.695Z,3.63
2023-02-23T13:15:29.191Z,5.50
2023-02-23T13:18:17.726Z,4.75
2023-02-23T13:20:51.976Z,6.93
2023-02-23T13:23:26.881Z,4.90
2023-02-23T13:26:13.064Z,6.43
2023-02-23T13:28:49.087Z,4.05
2023-02-23T13:31:24.637Z,5.45
2023-02-23T13:33:53.946Z,5.18
2023-02-23T13:36:21.724Z,4.68
2023-02-23T13:39:26.716Z,4.15
2023-02-23T13:42:11.709Z,4.40
2023-02-23T13:45:14.492Z,3.60
2023-02-23T13:47:50.323Z,8.05
2023-02-23T13:50:35.986Z,7.60
2023-02-23T13:53:07.163Z,5.75
2023-02-23T13:55:58.301Z,6.30
2023-02-23T13:58:29.861Z,6.05
2023-02-23T14:01:37.090Z,6.72
2023-02-23T14:04:12.550Z,7.20
2023-02-23T14:06:41.391Z,4.95
2023-02-23T14:09:18.163Z,4.63
2023-02-23T14:11:48.053Z,6.80
2023-02-23T14:14:34.607Z,6.15
2023-02-23T14:17:16.444Z,4.70
2023-02-23T14:20:17.833Z,4.75
2023-02-23T14:23:22.009Z,4.88
2023-02-23T14:26:35.093Z,4.82
2023-02-23T14:29:21.776Z,4.18
2023-02-23T14:32:24.475Z,3.63
2023-02-23T14:35:00.873Z,4.13
2023-02-23T14:37:37.827Z,7.57
2023-02-23T14:40:15.327Z,6.07
2023-02-23T14:42:46.357Z,5.68
2023-02-23T14:45:41.576Z,3.78
2023-02-23T14:48:13.441Z,5.60
2023-02-23T14:50:41.509Z,6.43
2023-02-23T14:53:23.410Z,5.20
2023-02-23T14:55:50.296Z,5.05
2023-02-23T14:58:23.842Z,8.32
2023-02-23T15:00:52.123Z,6.05
2023-02-23T15:03:18.914Z,6.95
2023-02-23T15:05:52.790Z,4.75
2023-02-23T15:08:23.703Z,4.45
2023-02-23T15:10:59.042Z,8.32
2023-02-23T15:16:36.884Z,3.97
2023-02-23T15:19:33.510Z,2.92
2023-02-23T15:22:03.118Z,5.00
2023-02-23T15:24:42.196Z,3.92
2023-02-23T15:27:22.883Z,6.45
2023-02-23T15:29:50.334Z,3.03
2023-02-23T15:32:24.876Z,5.45
2023-02-23T15:35:04.962Z,5.40
2023-02-23T15:37:59.508Z,5.20
2023-02-23T15:40:38.100Z,3.20
2023-02-23T15:43:04.890Z,5.35
2023-02-23T15:45:43.558Z,5.85
2023-02-23T15:48:18.432Z,5.18
2023-02-23T15:50:50.284Z,5.15
2023-02-23T15:53:38.491Z,2.80
2023-02-23T15:56:14.353Z,7.45
2023-02-23T15:58:56.572Z,3.47
2023-02-23T16:01:30.367Z,4.03
2023-02-23T16:04:07.976Z,6.68
2023-02-23T16:06:38.570Z,6.60
2023-02-23T16:09:06.098Z,3.75
2023-02-23T16:11:36.807Z,4.18
2023-02-23T16:14:05.695Z,4.20
2023-02-23T16:16:35.462Z,7.05
2023-02-23T16:19:04.812Z,4.55
2023-02-23T16:21:32.365Z,6.55
2023-02-23T16:24:06.323Z,5.93
2023-02-23T16:26:47.384Z,9.38
2023-02-23T16:29:19.524Z,4.82
2023-02-23T16:34:59.949Z,8.02
2023-02-23T16:37:27.997Z,7.38
2023-02-23T16:40:00.154Z,8.07
2023-02-23T16:45:01.573Z,8.85
2023-02-23T16:47:43.675Z,13.75
2023-02-23T16:50:20.231Z,12.05
2023-02-23T16:52:52.515Z,10.82
2023-02-23T16:55:27.963Z,11.10
2023-02-23T16:57:58.556Z,10.27
2023-02-23T17:00:28.803Z,9.77
2023-02-23T17:02:57.467Z,11.93
2023-02-23T17:05:25.029Z,15.80
2023-02-23T17:07:52.640Z,15.13
2023-02-23T17:10:26.132Z,16.52
2023-02-23T17:13:00.063Z,15.45
2023-02-23T17:15:30.981Z,11.93
2023-02-23T17:17:58.027Z,11.70
2023-02-23T17:20:26.179Z,11.40
2023-02-23T17:22:55.672Z,14.80
2023-02-23T17:25:26.608Z,11.60
2023-02-23T17:27:54.512Z,11.60
2023-02-23T17:30:21.973Z,9.38
2023-02-23T17:32:49.907Z,11.80
2023-02-23T17:35:17.416Z,11.95
2023-02-23T17:37:44.750Z,10.57
2023-02-23T17:40:26.274Z,10.45
2023-02-23T17:42:53.548Z,10.67
2023-02-23T17:45:20.234Z,13.02
2023-02-23T17:47:46.942Z,8.60
2023-02-23T17:50:13.572Z,13.65
2023-02-23T17:52:40.487Z,23.45
2023-02-23T17:55:09.199Z,26.67
2023-02-23T17:57:35.900Z,20.05
2023-02-23T18:00:03.740Z,18.13
2023-02-23T18:02:40.482Z,19.38
2023-02-23T18:05:08.771Z,20.10
2023-02-23T18:07:36.446Z,20.40
2023-02-23T18:10:04.517Z,15.75
2023-02-23T18:12:31.561Z,15.45
2023-02-23T18:14:59.058Z,14.88
2023-02-23T18:17:26.070Z,20.00
2023-02-23T18:19:52.828Z,13.80
2023-02-23T18:22:19.588Z,14.70
2023-02-23T18:24:46.264Z,10.70
2023-02-23T18:27:13.196Z,12.88
2023-02-23T18:29:39.858Z,11.65
2023-02-23T18:32:07.971Z,10.75
2023-02-23T18:34:35.369Z,10.43
2023-02-23T18:37:03.645Z,14.10
2023-02-23T18:39:32.024Z,14.40
2023-02-23T18:41:59.770Z,10.70
2023-02-23T18:44:27.049Z,12.02
2023-02-23T18:46:55.066Z,11.25
2023-02-23T18:49:24.710Z,13.63
2023-02-23T18:51:51.926Z,11.48
2023-02-23T18:54:19.233Z,10.48
2023-02-23T18:56:47.439Z,13.48
2023-02-23T18:59:14.975Z,10.18
2023-02-23T19:01:46.646Z,8.43
2023-02-23T19:04:14.163Z,12.50
2023-02-23T19:06:46.320Z,11.18
2023-02-23T19:09:14.628Z,10.18
2023-02-23T19:11:42.948Z,8.60
2023-02-23T19:14:18.268Z,15.48
2023-02-23T19:16:46.819Z,9.20
2023-02-23T19:19:14.974Z,10.30
2023-02-23T19:21:41.717Z,11.73
2023-02-23T19:24:08.858Z,12.45
2023-02-23T19:26:37.446Z,15.07
2023-02-23T19:29:04.644Z,16.45
2023-02-23T19:31:31.660Z,14.23
2023-02-23T19:33:59.666Z,16.17
2023-02-23T19:36:30.762Z,8.48
2023-02-23T19:39:05.947Z,11.57
2023-02-23T19:41:34.101Z,14.73
2023-02-23T19:44:01.243Z,13.40
2023-02-23T19:46:28.553Z,10.82
2023-02-23T19:48:55.754Z,13.00
2023-02-23T19:51:23.558Z,13.38
2023-02-23T19:53:54.358Z,12.63
2023-02-23T19:56:21.335Z,8.85
2023-02-23T19:58:49.370Z,11.38
2023-02-23T20:01:19.436Z,9.57
2023-02-23T20:03:49.539Z,12.43
2023-02-23T20:06:17.729Z,9.02
2023-02-23T20:08:45.311Z,12.52
2023-02-23T20:11:12.213Z,11.57
2023-02-23T20:13:39.202Z,14.10
2023-02-23T20:16:11.555Z,15.65
2023-02-23T20:18:39.822Z,16.30
2023-02-23T20:21:19.438Z,13.02
2023-02-23T20:23:47.210Z,15.13
2023-02-23T20:26:17.479Z,19.13
2023-02-23T20:28:44.924Z,18.75
2023-02-23T20:31:18.123Z,14.55
2023-02-23T20:33:44.899Z,14.35
2023-02-23T20:36:12.211Z,16.17
2023-02-23T20:38:39.190Z,12.98
2023-02-23T20:41:06.438Z,19.30
2023-02-23T20:43:33.166Z,16.80
2023-02-23T20:46:00.907Z,14.80
2023-02-23T20:48:29.261Z,15.55
2023-02-23T20:50:57.113Z,17.55
2023-02-23T20:53:26.055Z,17.65
2023-02-23T20:55:53.441Z,16.20
2023-02-23T20:58:26.389Z,18.38
2023-02-23T21:00:54.693Z,14.70
2023-02-23T21:03:21.692Z,14.55
2023-02-23T21:05:49.051Z,18.35
2023-02-23T21:08:15.850Z,18.65
2023-02-23T21:10:42.921Z,15.80
2023-02-23T21:13:11.005Z,16.88
2023-02-23T21:15:39.224Z,15.68
2023-02-23T21:18:06.669Z,14.55
2023-02-23T21:20:35.398Z,18.17
2023-02-23T21:23:04.237Z,17.95
2023-02-23T21:25:31.128Z,17.92
2023-02-23T21:28:01.872Z,20.25
2023-02-23T21:30:29.189Z,22.90
2023-02-23T21:32:57.475Z,20.02
2023-02-23T21:35:24.826Z,22.70
2023-02-23T21:37:52.408Z,25.27
2023-02-23T21:40:21.185Z,20.83
2023-02-23T21:42:48.433Z,18.23
2023-02-23T21:45:16.432Z,15.75
2023-02-23T21:47:45.007Z,17.23
2023-02-23T21:50:15.327Z,15.98
2023-02-23T21:52:43.840Z,13.45
2023-02-23T21:55:21.555Z,16.75
2023-02-23T21:57:49.533Z,15.77
2023-02-23T22:00:16.636Z,19.45
2023-02-23T22:02:46.420Z,13.85
2023-02-23T22:05:15.060Z,17.17
2023-02-23T22:07:46.787Z,17.05
2023-02-23T22:10:13.484Z,26.58
2023-02-23T22:12:40.137Z,31.80
2023-02-23T22:15:07.692Z,18.73
2023-02-23T22:17:36.148Z,15.85
2023-02-23T22:20:05.540Z,19.05
2023-02-23T22:22:36.260Z,14.90
2023-02-23T22:25:04.774Z,11.38
2023-02-23T22:27:32.164Z,13.45
2023-02-23T22:30:04.908Z,12.75
2023-02-23T22:32:34.444Z,12.30
2023-02-23T22:35:01.241Z,15.85
2023-02-23T22:37:32.202Z,22.70
2023-02-23T22:40:18.391Z,16.13
2023-02-23T22:42:48.423Z,19.83
2023-02-23T22:45:16.211Z,15.43
2023-02-23T22:47:43.186Z,17.08
2023-02-23T22:50:12.183Z,19.75
2023-02-23T22:52:39.121Z,14.32
2023-02-23T22:55:06.214Z,14.00
2023-02-23T22:57:32.991Z,15.85
2023-02-23T23:00:06.671Z,17.30
2023-02-23T23:02:33.679Z,12.50
2023-02-23T23:05:01.897Z,17.20
2023-02-23T23:07:30.969Z,14.23
2023-02-23T23:09:58.525Z,15.15
2023-02-23T23:12:27.927Z,16.05
2023-02-23T23:15:07.320Z,13.73
2023-02-23T23:17:34.086Z,15.45
2023-02-23T23:20:00.741Z,12.68
2023-02-23T23:22:28.115Z,8.95
2023-02-23T23:24:57.144Z,13.00
2023-02-23T23:27:24.711Z,14.07
2023-02-23T23:29:51.585Z,11.50
2023-02-23T23:32:19.078Z,13.10
2023-02-23T23:34:49.505Z,14.52
2023-02-23T23:37:18.003Z,11.38
2023-02-23T23:39:45.594Z,11.93
2023-02-23T23:42:13.084Z,13.93
2023-02-23T23:44:39.746Z,12.77
2023-02-23T23:47:06.613Z,13.93
2023-02-23T23:49:37.972Z,12.95
2023-02-23T23:52:06.327Z,10.60
2023-02-23T23:54:39.338Z,12.23
2023-02-23T23:57:07.110Z,13.98
2023-02-23T23:59:35.331Z,12.93
